Time;durP1;ratioP1;P1;durP2;ratioP2;P2;SDS_P1;SDS_P2;PMS_P1;PMS_P2;Temp;Humidity;BMP_temperature;BMP_pressure;BME280_temperature;BME280_humidity;BME280_pressure;Samples;Min_cycle;Max_cycle;Signal;HPM_P1;HPM_P2
2022/05/30 00:00:21;;;;;;;0.00;0.00;;;;;;;11.33;64.01;101547.91;5080166;28;20592;-77
2022/05/30 00:02:49;;;;;;;0.10;0.10;;;;;;;11.30;64.06;101547.06;5075926;28;20048;-77
2022/05/30 00:05:16;;;;;;;0.10;0.10;;;;;;;11.28;64.22;101552.41;5089890;28;20145;-76
2022/05/30 00:07:42;;;;;;;0.13;0.13;;;;;;;11.28;63.94;101549.75;5088930;28;20078;-77
2022/05/30 00:10:10;;;;;;;0.10;0.10;;;;;;;11.28;63.46;101539.13;5089597;28;20036;-77
2022/05/30 00:12:37;;;;;;;0.22;0.22;;;;;;;11.27;63.93;101539.16;5085479;28;20091;-77
2022/05/30 00:15:06;;;;;;;0.00;0.00;;;;;;;11.26;64.25;101538.25;5094341;28;20024;-76
2022/05/30 00:17:33;;;;;;;0.00;0.00;;;;;;;11.25;63.50;101540.94;5082881;28;20059;-77
2022/05/30 00:19:59;;;;;;;0.10;0.10;;;;;;;11.23;64.19;101538.31;5081925;28;20063;-77
2022/05/30 00:22:25;;;;;;;0.10;0.10;;;;;;;11.22;64.39;101535.69;5078141;28;20028;-77
2022/05/30 00:24:51;;;;;;;0.05;0.05;;;;;;;11.19;64.38;101531.31;5086013;28;20040;-77
2022/05/30 00:27:18;;;;;;;0.00;0.00;;;;;;;11.16;64.57;101521.59;5084484;28;20082;-77
2022/05/30 00:29:45;;;;;;;0.03;0.03;;;;;;;11.13;64.35;101516.31;5089218;28;20063;-76
2022/05/30 00:32:11;;;;;;;0.08;0.08;;;;;;;11.09;63.97;101525.22;5083188;28;20033;-77
2022/05/30 00:34:38;;;;;;;0.00;0.00;;;;;;;11.04;64.37;101518.19;5083938;28;20097;-77
2022/05/30 00:37:04;;;;;;;0.10;0.10;;;;;;;11.02;64.27;101520.00;5087875;28;20074;-77
2022/05/30 00:39:31;;;;;;;0.10;0.10;;;;;;;11.01;64.19;101519.09;5083247;28;20042;-77
2022/05/30 00:42:19;;;;;;;0.10;0.10;;;;;;;11.10;63.94;101520.78;5088065;28;20135;-77
2022/05/30 00:44:48;;;;;;;0.05;0.05;;;;;;;11.02;64.27;101520.00;5084684;28;20039;-77
2022/05/30 00:47:15;;;;;;;0.10;0.10;;;;;;;10.99;63.70;101524.44;5096770;28;20032;-77
2022/05/30 00:49:44;;;;;;;0.08;0.08;;;;;;;11.00;64.03;101520.91;5091702;28;20435;-77
2022/05/30 00:52:16;;;;;;;0.55;0.55;;;;;;;11.02;64.29;101523.53;5082126;28;20024;-77
2022/05/30 00:54:48;;;;;;;0.10;0.10;;;;;;;11.03;64.25;101519.09;5086947;28;20028;-77
2022/05/30 00:57:22;;;;;;;;;;;;;;;11.17;64.16;101522.47;5092563;28;20027;-77
2022/05/30 01:02:33;;;;;;;0.10;0.10;;;;;;;11.03;64.74;101519.97;5056913;28;20818;-76
2022/05/30 01:07:47;;;;;;;0.10;0.10;;;;;;;11.00;64.27;101520.00;5049033;28;20033;-76
2022/05/30 01:10:17;;;;;;;0.63;0.63;;;;;;;10.99;64.58;101518.22;5049421;28;20087;-76
2022/05/30 01:12:52;;;;;;;0.05;0.05;;;;;;;11.00;64.16;101515.59;5057394;28;20443;-76
2022/05/30 01:15:22;;;;;;;0.10;0.10;;;;;;;10.97;64.26;101518.25;5051312;28;20112;-76
2022/05/30 01:29:29;;;;;;;0.10;0.10;;;;;;;11.03;64.59;101504.06;5098704;27;20756;-76
2022/05/30 01:31:55;;;;;;;0.00;0.00;;;;;;;10.98;64.68;101496.16;5101797;28;20042;-77
2022/05/30 01:34:24;;;;;;;0.10;0.10;;;;;;;10.99;64.50;101497.91;5104375;28;20034;-77
2022/05/30 01:36:50;;;;;;;0.00;0.00;;;;;;;10.99;64.33;101492.63;5098343;28;20038;-77
2022/05/30 01:39:17;;;;;;;0.08;0.08;;;;;;;11.03;64.14;101497.88;5106953;28;20025;-77
2022/05/30 01:41:43;;;;;;;0.00;0.00;;;;;;;11.03;63.81;101497.88;5099340;28;20506;-77
2022/05/30 01:44:10;;;;;;;0.10;0.10;;;;;;;11.01;64.31;101492.59;5094771;28;20465;-76
2022/05/30 01:46:36;;;;;;;0.10;0.10;;;;;;;10.99;64.54;101492.63;5098466;28;20535;-77
2022/05/30 01:49:03;;;;;;;0.00;0.00;;;;;;;11.02;64.43;101490.84;5098943;28;20076;-76
2022/05/30 01:51:29;;;;;;;0.03;0.03;;;;;;;11.03;64.53;101493.47;5099185;28;20437;-77
2022/05/30 01:53:55;;;;;;;0.85;0.55;;;;;;;11.08;64.63;101501.34;5090205;28;20039;-77
2022/05/30 01:56:22;;;;;;;0.05;0.05;;;;;;;11.10;64.81;101496.91;5098693;28;20040;-77
2022/05/30 01:58:48;;;;;;;0.00;0.00;;;;;;;11.14;64.61;101501.28;5096377;28;20028;-77
2022/05/30 02:01:20;;;;;;;0.00;0.00;;;;;;;11.19;64.28;101494.16;5105332;28;20031;-77
2022/05/30 02:03:48;;;;;;;0.10;0.10;;;;;;;11.25;64.57;101494.09;5101266;28;20119;-77
2022/05/30 02:06:14;;;;;;;0.10;0.10;;;;;;;11.29;64.39;101493.16;5096942;28;20038;-77
2022/05/30 02:08:41;;;;;;;0.00;0.00;;;;;;;11.35;64.05;101488.66;5102294;28;20071;-77
2022/05/30 02:11:10;;;;;;;0.10;0.10;;;;;;;11.37;64.48;101484.22;5096414;28;20089;-77
2022/05/30 02:13:38;;;;;;;0.00;0.00;;;;;;;11.42;64.56;101480.59;5101990;28;20032;-77
2022/05/30 02:18:52;;;;;;;0.10;0.10;;;;;;;11.48;64.42;101477.84;5091008;28;20500;-77
2022/05/30 02:21:18;;;;;;;0.10;0.10;;;;;;;11.51;64.48;101484.03;5094699;28;20093;-77
2022/05/30 02:23:44;;;;;;;0.10;0.10;;;;;;;11.55;64.39;101481.31;5106838;28;20029;-78
2022/05/30 02:26:10;;;;;;;0.00;0.00;;;;;;;11.58;64.49;101475.09;5094827;28;20028;-76
2022/05/30 02:28:37;;;;;;;0.05;0.05;;;;;;;11.60;64.91;101484.78;5106704;28;20410;-77
2022/05/30 02:31:04;;;;;;;0.10;0.10;;;;;;;11.68;64.94;101473.19;5099459;28;20039;-77
2022/05/30 02:36:47;;;;;;;0.10;0.10;;;;;;;11.81;64.92;101472.97;5098265;28;20042;-78
2022/05/30 02:39:03;;;;;;;0.03;0.03;;;;;;;11.85;64.93;101473.81;5095494;28;20116;-78
2022/05/30 02:41:29;;;;;;;0.10;0.10;;;;;;;11.88;64.85;101473.75;5083842;28;20032;-78
2022/05/30 02:43:55;;;;;;;0.10;0.10;;;;;;;11.92;64.28;101471.91;5086383;28;20028;-78
2022/05/30 02:46:21;;;;;;;0.20;0.20;;;;;;;11.95;64.62;101469.22;5092183;28;20036;-78
2022/05/30 02:48:47;;;;;;;0.00;0.00;;;;;;;11.98;64.54;101469.22;5090064;28;20055;-78
2022/05/30 02:51:13;;;;;;;0.00;0.00;;;;;;;12.01;64.79;101470.94;5090023;28;20122;-78
2022/05/30 02:53:40;;;;;;;0.03;0.03;;;;;;;12.03;64.99;101466.50;5081564;28;20108;-78
2022/05/30 02:56:06;;;;;;;0.10;0.10;;;;;;;12.02;64.72;101470.91;5087465;28;20119;-78
2022/05/30 02:58:32;;;;;;;0.10;0.10;;;;;;;12.02;64.19;101470.03;5097559;28;20037;-78
2022/05/30 03:00:58;;;;;;;0.00;0.00;;;;;;;11.97;64.20;101462.13;5091051;28;20020;-78
2022/05/30 03:03:24;;;;;;;0.38;0.38;;;;;;;11.91;63.58;101465.75;5084999;28;20046;-79
2022/05/30 03:05:50;;;;;;;0.00;0.00;;;;;;;11.88;64.44;101468.44;5094612;28;20031;-78
2022/05/30 03:08:17;;;;;;;0.08;0.08;;;;;;;11.85;64.26;101471.16;5085763;28;20035;-78
2022/05/30 03:10:43;;;;;;;0.00;0.00;;;;;;;11.81;63.80;101461.47;5096397;28;20058;-78
2022/05/30 03:13:09;;;;;;;0.10;0.10;;;;;;;11.78;64.17;101466.84;5075786;28;20096;-78
2022/05/30 03:15:35;;;;;;;0.08;0.08;;;;;;;11.77;63.93;101460.63;5084043;28;20025;-78
2022/05/30 03:18:01;;;;;;;0.00;0.00;;;;;;;11.74;64.00;101459.78;5085566;28;20082;-78
2022/05/30 03:20:28;;;;;;;0.03;0.03;;;;;;;11.74;64.40;101454.47;5091961;28;20028;-78
2022/05/30 03:22:54;;;;;;;0.10;0.10;;;;;;;11.73;64.09;101458.06;5090856;28;20035;-78
2022/05/30 03:25:20;;;;;;;0.10;0.10;;;;;;;11.72;64.15;101456.31;5082601;28;20059;-78
2022/05/30 03:27:46;;;;;;;0.10;0.10;;;;;;;11.72;64.05;101461.59;5090978;28;20035;-77
2022/05/30 03:30:13;;;;;;;0.10;0.10;;;;;;;11.71;64.27;101457.19;5091873;28;20040;-77
2022/05/30 03:32:41;;;;;;;0.08;0.08;;;;;;;11.69;63.89;101462.53;5090544;28;20100;-78
2022/05/30 03:35:08;;;;;;;0.00;0.00;;;;;;;11.65;63.93;101474.97;5084636;28;20048;-78
2022/05/30 03:37:37;;;;;;;0.00;0.00;;;;;;;11.63;64.20;101473.25;5081457;28;20050;-78
2022/05/30 03:40:05;;;;;;;0.10;0.10;;;;;;;11.61;64.40;101475.03;5088115;28;20028;-78
2022/05/30 03:42:31;;;;;;;0.00;0.00;;;;;;;11.59;64.86;101476.81;5088204;28;20058;-78
2022/05/30 03:44:57;;;;;;;0.00;0.00;;;;;;;11.56;65.13;101472.44;5084792;28;20032;-78
2022/05/30 03:47:24;;;;;;;0.10;0.10;;;;;;;11.54;64.76;101479.56;5081204;28;20039;-78
2022/05/30 03:49:57;;;;;;;0.10;0.10;;;;;;;11.53;65.08;101483.09;5093291;28;20055;-78
2022/05/30 03:52:23;;;;;;;0.00;0.00;;;;;;;11.50;64.47;101480.47;5093733;28;20035;-78
2022/05/30 03:54:49;;;;;;;0.28;0.28;;;;;;;11.44;64.35;101484.09;5096253;28;20115;-78
2022/05/30 03:57:15;;;;;;;0.10;0.10;;;;;;;11.42;64.92;101479.72;5091383;28;20512;-78
2022/05/30 03:59:41;;;;;;;0.00;0.00;;;;;;;11.40;64.80;101473.53;5088141;28;20032;-77
2022/05/30 04:02:07;;;;;;;0.10;0.10;;;;;;;11.39;65.14;101472.69;5078982;28;20036;-78
2022/05/30 04:04:33;;;;;;;0.10;0.10;;;;;;;11.39;64.60;101482.41;5086845;28;20035;-78
2022/05/30 04:06:59;;;;;;;0.00;0.00;;;;;;;11.37;64.76;101477.13;5090658;28;20103;-78
2022/05/30 04:09:25;;;;;;;0.10;0.10;;;;;;;11.36;65.04;101470.06;5090671;28;20047;-78
2022/05/30 04:11:51;;;;;;;0.47;0.47;;;;;;;11.35;65.01;101462.13;5078707;28;20040;-78
2022/05/30 04:14:17;;;;;;;0.08;0.08;;;;;;;11.37;65.04;101470.94;5082672;28;20035;-78
2022/05/30 04:16:43;;;;;;;0.00;0.00;;;;;;;11.37;64.79;101461.19;5090933;28;20057;-78
2022/05/30 04:19:10;;;;;;;0.10;0.10;;;;;;;11.37;64.95;101460.34;5087230;28;20032;-77
2022/05/30 04:21:36;;;;;;;0.00;0.00;;;;;;;11.37;64.91;101466.50;5090080;28;20025;-78
2022/05/30 04:24:02;;;;;;;0.10;0.10;;;;;;;11.43;64.69;101465.56;5078291;28;20032;-78
2022/05/30 04:26:29;;;;;;;0.10;0.10;;;;;;;11.45;64.27;101458.44;5093882;28;20043;-78
2022/05/30 04:28:55;;;;;;;0.13;0.13;;;;;;;11.41;64.31;101462.91;5091844;28;20028;-78
2022/05/30 04:31:21;;;;;;;0.00;0.00;;;;;;;11.38;64.59;101464.75;5088281;28;20067;-77
2022/05/30 04:33:47;;;;;;;0.10;0.10;;;;;;;11.45;64.07;101463.75;5092920;28;20031;-78
2022/05/30 04:36:14;;;;;;;0.10;0.10;;;;;;;11.46;64.24;101465.50;5088403;28;20044;-78
2022/05/30 04:38:41;;;;;;;0.00;0.00;;;;;;;11.45;63.97;101466.41;5088885;28;20028;-78
2022/05/30 04:41:07;;;;;;;0.10;0.10;;;;;;;11.44;63.63;101468.19;5090490;28;20027;-78
2022/05/30 04:43:33;;;;;;;0.00;0.00;;;;;;;11.40;63.89;101460.28;5084284;28;20028;-78
2022/05/30 04:46:07;;;;;;;0.00;0.00;;;;;;;11.41;64.10;101462.03;5085091;28;20039;-78
2022/05/30 04:48:33;;;;;;;0.00;0.00;;;;;;;11.39;64.46;101461.16;5089548;28;20033;-78
2022/05/30 04:50:59;;;;;;;0.00;0.00;;;;;;;11.41;64.37;101467.34;5084910;28;20065;-78
2022/05/30 04:53:25;;;;;;;0.00;0.00;;;;;;;11.41;64.42;101462.03;5085740;28;20126;-78
2022/05/30 04:55:51;;;;;;;0.00;0.00;;;;;;;11.46;63.97;101465.50;5085344;28;20047;-78
2022/05/30 04:58:17;;;;;;;0.08;0.08;;;;;;;11.49;64.00;101460.16;5084773;28;20032;-78
2022/05/30 05:00:44;;;;;;;0.10;0.10;;;;;;;11.52;64.40;101465.41;5089802;28;20441;-77
2022/05/30 05:03:10;;;;;;;0.10;0.10;;;;;;;11.58;63.70;101470.66;5096261;28;20089;-77
2022/05/30 05:05:36;;;;;;;0.10;0.10;;;;;;;11.59;63.67;101469.75;5080856;28;20036;-78
2022/05/30 05:10:59;;;;;;;0.10;0.10;;;;;;;11.77;63.27;101467.72;5108292;27;20402;-75
2022/05/30 05:13:25;;;;;;;0.10;0.10;;;;;;;11.76;63.49;101466.88;5098037;28;20043;-75
2022/05/30 05:15:56;;;;;;;0.00;0.00;;;;;;;11.83;63.29;101472.94;5108285;28;20047;-77
2022/05/30 05:18:22;;;;;;;0.10;0.10;;;;;;;11.81;63.09;101478.28;5105023;28;20060;-76
2022/05/30 05:20:49;;;;;;;0.10;0.10;;;;;;;11.80;63.43;101479.19;5113631;28;20032;-76
2022/05/30 05:23:15;;;;;;;0.10;0.10;;;;;;;11.85;62.68;101480.88;5099945;28;20031;-76
2022/05/30 05:25:41;;;;;;;0.10;0.10;;;;;;;11.90;63.41;101474.63;5104868;28;20036;-76
2022/05/30 05:28:08;;;;;;;0.08;0.08;;;;;;;11.90;62.91;101477.25;5111859;28;20163;-76
2022/05/30 05:30:34;;;;;;;0.00;0.00;;;;;;;11.93;63.86;101477.19;5100650;28;20054;-76
2022/05/30 05:33:01;;;;;;;0.03;0.03;;;;;;;11.94;63.26;101476.31;5103766;28;20102;-76
2022/05/30 05:35:27;;;;;;;0.10;0.10;;;;;;;12.04;63.25;101478.88;5112261;28;20114;-77
2022/05/30 05:37:53;;;;;;;0.10;0.10;;;;;;;12.09;63.34;101479.66;5105356;28;20061;-77
2022/05/30 05:40:19;;;;;;;0.10;0.10;;;;;;;12.16;63.11;101473.31;5098697;28;20119;-77
2022/05/30 05:42:45;;;;;;;0.10;0.10;;;;;;;12.21;63.08;101482.13;5098889;28;20028;-76
2022/05/30 05:45:11;;;;;;;0.10;0.10;;;;;;;12.20;62.37;101479.47;5107901;28;20513;-76
2022/05/30 05:47:37;;;;;;;0.10;0.10;;;;;;;12.29;62.13;101482.00;5103516;28;20025;-76
2022/05/30 05:50:04;;;;;;;0.00;0.00;;;;;;;12.35;62.20;101481.00;5104165;28;20069;-76
2022/05/30 05:52:32;;;;;;;0.10;0.10;;;;;;;12.29;61.86;101485.50;5111324;28;20039;-76
2022/05/30 05:54:59;;;;;;;0.00;0.00;;;;;;;12.35;61.79;101483.66;5102909;28;20051;-76
2022/05/30 05:57:25;;;;;;;0.10;0.10;;;;;;;12.43;61.48;101484.41;5099386;28;20663;-77
2022/05/30 05:59:52;;;;;;;0.10;0.10;;;;;;;12.48;61.57;101487.84;5108263;28;20020;-75
2022/05/30 06:02:19;;;;;;;0.00;0.00;;;;;;;12.52;61.15;101492.19;5104006;28;20099;-77
2022/05/30 06:04:47;;;;;;;0.00;0.00;;;;;;;12.58;61.18;101492.09;5107597;28;20016;-78
2022/05/30 06:07:14;;;;;;;0.00;0.00;;;;;;;12.55;62.07;101494.81;5109097;28;20098;-77
2022/05/30 06:09:40;;;;;;;0.08;0.08;;;;;;;12.61;61.51;101492.06;5118891;28;20031;-75
2022/05/30 06:12:07;;;;;;;0.10;0.10;;;;;;;12.67;61.96;101485.72;5105691;28;20028;-76
2022/05/30 06:14:34;;;;;;;0.00;0.00;;;;;;;12.65;61.50;101486.66;5101899;28;20241;-76
2022/05/30 06:17:01;;;;;;;0.10;0.10;;;;;;;12.75;60.20;101496.25;5108675;28;20104;-76
2022/05/30 06:19:27;;;;;;;0.00;0.00;;;;;;;12.78;59.99;101493.53;5108140;28;20031;-75
2022/05/30 06:21:53;;;;;;;0.10;0.10;;;;;;;12.88;60.48;101489.78;5107166;28;20035;-76
2022/05/30 06:24:20;;;;;;;0.00;0.00;;;;;;;12.94;60.69;101488.78;5090249;28;20024;-75
2022/05/30 06:26:46;;;;;;;0.10;0.10;;;;;;;12.99;59.89;101486.91;5089771;28;20035;-75
2022/05/30 06:29:14;;;;;;;0.00;0.00;;;;;;;13.03;58.73;101487.72;5091940;28;20036;-75
2022/05/30 06:31:41;;;;;;;0.10;0.10;;;;;;;13.06;59.44;101495.63;5082016;28;20055;-76
2022/05/30 06:34:07;;;;;;;0.10;0.10;;;;;;;13.10;59.50;101492.88;5083399;28;20038;-76
2022/05/30 06:36:34;;;;;;;0.00;0.00;;;;;;;13.10;59.19;101492.88;5086402;28;20079;-76
2022/05/30 06:39:01;;;;;;;0.05;0.05;;;;;;;13.18;59.02;101495.38;5086377;28;20020;-77
2022/05/30 06:41:31;;;;;;;0.28;0.28;;;;;;;13.27;59.01;101496.97;5086706;28;20490;-76
2022/05/30 06:44:02;;;;;;;0.10;0.10;;;;;;;13.38;59.53;101488.81;5088502;28;20144;-76
2022/05/30 06:46:29;;;;;;;0.00;0.00;;;;;;;13.49;57.97;101491.25;5083114;28;20573;-76
2022/05/30 06:48:56;;;;;;;0.10;0.10;;;;;;;13.65;58.25;101489.13;5079351;28;20456;-76
2022/05/30 06:51:24;;;;;;;0.00;0.00;;;;;;;13.82;55.30;101484.28;5083350;28;20397;-77
2022/05/30 06:53:50;;;;;;;0.10;0.10;;;;;;;13.99;56.48;101485.69;5085095;28;20024;-76
2022/05/30 06:56:20;;;;;;;0.03;0.03;;;;;;;14.11;55.53;101495.19;5083019;28;20514;-75
2022/05/30 06:58:50;;;;;;;0.00;0.00;;;;;;;14.17;54.51;101490.56;5083291;28;20485;-76
2022/05/30 07:01:18;;;;;;;0.00;0.00;;;;;;;14.25;55.51;101498.34;5077263;28;20024;-78
2022/05/30 07:03:45;;;;;;;0.03;0.03;;;;;;;14.24;53.48;101497.50;5072043;28;20040;-76
2022/05/30 07:06:14;;;;;;;0.10;0.10;;;;;;;14.33;54.76;101492.84;5084828;28;20115;-77
2022/05/30 07:08:43;;;;;;;0.55;0.55;;;;;;;14.35;55.54;101491.88;5092047;28;20024;-76
2022/05/30 07:11:10;;;;;;;0.00;0.00;;;;;;;14.32;55.04;101499.09;5091959;28;20055;-77
2022/05/30 07:13:36;;;;;;;0.00;0.00;;;;;;;14.31;54.48;101495.53;5091932;28;20115;-76
2022/05/30 07:16:02;;;;;;;0.00;0.00;;;;;;;14.33;55.30;101492.84;5092117;28;20481;-77
2022/05/30 07:18:29;;;;;;;0.15;0.15;;;;;;;14.45;54.30;101491.66;5091496;28;20055;-76
2022/05/30 07:20:57;;;;;;;0.30;0.30;;;;;;;14.48;52.51;101488.91;5084081;28;20093;-76
2022/05/30 07:23:27;;;;;;;0.00;0.00;;;;;;;14.51;54.49;101494.16;5077189;28;20028;-76
2022/05/30 07:25:58;;;;;;;0.25;0.25;;;;;;;14.60;54.30;101495.72;5083777;28;20587;-77
2022/05/30 07:28:29;;;;;;;0.10;0.10;;;;;;;14.63;53.53;101498.28;5076387;28;20027;-76
2022/05/30 07:31:03;;;;;;;0.00;0.00;;;;;;;14.67;52.24;101495.53;5076684;28;20547;-77
2022/05/30 07:33:29;;;;;;;0.00;0.00;;;;;;;14.77;52.78;101496.16;5082339;28;20482;-77
2022/05/30 07:35:55;;;;;;;0.00;0.00;;;;;;;14.88;53.61;101493.22;5074554;28;20045;-77
2022/05/30 07:38:22;;;;;;;0.00;0.00;;;;;;;14.99;52.57;101490.22;5079162;28;20024;-78
2022/05/30 07:40:48;;;;;;;0.10;0.10;;;;;;;15.15;53.65;101496.00;5068246;28;20047;-77
2022/05/30 07:43:14;;;;;;;0.10;0.10;;;;;;;15.31;50.21;101496.44;5079317;28;20054;-77
2022/05/30 07:45:41;;;;;;;0.50;0.50;;;;;;;15.53;53.25;101502.88;5087608;28;20104;-77
2022/05/30 07:48:08;;;;;;;0.08;0.08;;;;;;;15.71;52.30;101495.22;5086631;28;20031;-77
2022/05/30 07:50:35;;;;;;;0.13;0.13;;;;;;;15.87;51.40;101489.44;5081596;28;20033;-78
2022/05/30 07:53:02;;;;;;;0.00;0.00;;;;;;;15.94;52.03;101489.19;5082269;28;20036;-78
2022/05/30 07:55:29;;;;;;;0.10;0.10;;;;;;;15.95;52.07;101495.41;5089476;28;20037;-77
2022/05/30 07:57:58;;;;;;;0.10;0.10;;;;;;;15.92;50.98;101490.19;5091335;28;20043;-78
2022/05/30 08:00:29;;;;;;;0.10;0.10;;;;;;;15.89;52.30;101484.91;5098938;28;20434;-78
2022/05/30 08:02:55;;;;;;;0.00;0.00;;;;;;;15.79;52.00;101492.34;5078825;28;20155;-77
2022/05/30 08:05:22;;;;;;;0.65;0.65;;;;;;;15.78;51.93;101493.25;5084327;28;20489;-75
2022/05/30 08:07:48;;;;;;;0.00;0.00;;;;;;;15.77;50.84;101495.03;5086354;28;20055;-75
2022/05/30 08:10:16;;;;;;;0.08;0.08;;;;;;;15.88;51.78;101483.19;5085944;28;20068;-76
2022/05/30 08:12:42;;;;;;;0.10;0.10;;;;;;;15.96;52.90;101489.16;5071098;28;20036;-76
2022/05/30 08:15:10;;;;;;;0.10;0.10;;;;;;;15.85;49.55;101487.69;5076596;28;20104;-74
2022/05/30 08:17:37;;;;;;;0.20;0.20;;;;;;;15.94;50.83;101488.34;5078825;28;20031;-78
2022/05/30 08:20:05;;;;;;;0.00;0.00;;;;;;;15.97;49.85;101494.44;5070797;28;20486;-75
2022/05/30 08:22:33;;;;;;;0.00;0.00;;;;;;;16.04;51.09;101492.47;5075383;28;20444;-76
2022/05/30 08:25:03;;;;;;;0.10;0.10;;;;;;;16.11;51.64;101496.69;5080727;28;20028;-78
2022/05/30 08:27:30;;;;;;;0.10;0.10;;;;;;;16.14;49.32;101501.91;5077355;28;20119;-76
2022/05/30 08:29:56;;;;;;;0.08;0.08;;;;;;;16.23;49.58;101503.41;5090830;28;20020;-76
2022/05/30 08:32:23;;;;;;;0.10;0.10;;;;;;;16.30;49.71;101504.97;5088140;28;20042;-76
2022/05/30 08:34:49;;;;;;;0.00;0.00;;;;;;;16.37;49.50;101502.94;5088011;28;20024;-76
2022/05/30 08:37:16;;;;;;;0.32;0.32;;;;;;;16.45;50.17;101498.22;5092713;22;20041;-81
2022/05/30 08:42:31;;;;;;;0.10;0.10;;;;;;;16.66;48.28;101511.78;5073895;28;20042;-81
2022/05/30 08:45:04;;;;;;;0.05;0.05;;;;;;;16.75;46.87;101510.59;5075107;28;20031;-79
2022/05/30 08:47:44;;;;;;;0.10;0.10;;;;;;;16.82;47.48;101518.34;5072652;28;20043;-79
2022/05/30 08:50:35;;;;;;;0.10;0.10;;;;;;;16.95;48.47;101512.59;5074713;28;20083;-79
2022/05/30 08:53:41;;;;;;;0.00;0.00;;;;;;;16.94;46.47;101517.03;5067738;28;20032;-79
2022/05/30 08:56:20;;;;;;;0.10;0.10;;;;;;;16.93;46.07;101515.28;5071183;28;20036;-81
2022/05/30 08:59:13;;;;;;;0.10;0.10;;;;;;;16.97;46.71;101513.38;5073771;28;20486;-79
2022/05/30 09:02:01;;;;;;;0.10;0.10;;;;;;;17.02;46.95;101506.06;5075225;28;20545;-80
2022/05/30 09:04:39;;;;;;;0.32;0.32;;;;;;;17.06;45.57;101506.81;5067343;28;20031;-80
2022/05/30 09:07:13;;;;;;;0.10;0.10;;;;;;;17.17;47.80;101504.66;5081862;28;20088;-79
2022/05/30 09:10:04;;;;;;;0.05;0.05;;;;;;;17.29;44.41;101508.66;5091218;28;20087;-79
2022/05/30 09:12:48;;;;;;;0.10;0.10;;;;;;;17.34;46.50;101506.69;5088210;28;20060;-80
2022/05/30 09:15:35;;;;;;;0.00;0.00;;;;;;;17.43;44.50;101505.44;5084060;28;20086;-82
2022/05/30 09:18:26;;;;;;;0.00;0.00;;;;;;;17.46;43.41;101508.88;5081039;28;20103;-82
2022/05/30 09:20:54;;;;;;;0.00;0.00;;;;;;;17.50;43.92;101511.47;5081020;28;20375;-82
2022/05/30 09:23:24;;;;;;;0.03;0.03;;;;;;;17.51;43.58;101515.88;5081183;28;20025;-82
2022/05/30 09:26:22;;;;;;;0.10;0.10;;;;;;;17.56;44.25;101504.06;5079729;28;20064;-80
2022/05/30 09:28:42;;;;;;;0.10;0.10;;;;;;;17.66;43.96;101506.34;5081191;28;20056;-82
2022/05/30 09:31:23;;;;;;;0.10;0.10;;;;;;;17.81;44.64;101513.81;5080190;28;20028;-78
2022/05/30 09:33:52;;;;;;;0.10;0.10;;;;;;;17.82;45.20;101515.56;5080568;28;20515;-81
2022/05/30 09:39:00;;;;;;;0.00;0.00;;;;;;;17.87;45.02;101518.03;5160003;27;20111;-81
2022/05/30 09:41:46;;;;;;;0.10;0.10;;;;;;;17.86;44.64;101511.81;5159907;27;20037;-80
2022/05/30 09:44:25;;;;;;;0.10;0.10;;;;;;;17.98;44.24;101523.00;5162074;27;20044;-80
2022/05/30 09:46:59;;;;;;;0.10;0.10;;;;;;;18.05;43.90;101511.97;5161754;27;20082;-81
2022/05/30 09:49:44;;;;;;;0.35;0.35;;;;;;;18.18;43.46;101508.78;5160861;27;20037;-80
2022/05/30 09:55:33;;;;;;;0.10;0.10;;;;;;;18.45;41.21;101513.94;5133695;27;20411;-81
2022/05/30 09:58:00;;;;;;;0.10;0.10;;;;;;;18.48;43.06;101503.97;5118357;28;20078;-82
2022/05/30 10:00:40;;;;;;;0.10;0.10;;;;;;;18.59;41.20;101511.53;5118447;28;20086;-81
2022/05/30 10:03:24;;;;;;;0.10;0.10;;;;;;;18.65;42.08;101507.72;5117813;28;20024;-80
2022/05/30 10:05:50;;;;;;;0.00;0.00;;;;;;;18.65;40.61;101505.91;5119036;28;20080;-83
2022/05/30 10:08:31;;;;;;;0.00;0.00;;;;;;;18.83;41.25;101497.97;5118146;28;20042;-82
2022/05/30 10:10:58;;;;;;;0.03;0.03;;;;;;;18.84;40.03;101502.41;5112051;28;20027;-82
2022/05/30 10:13:35;;;;;;;0.10;0.10;;;;;;;18.95;41.51;101507.34;5113204;28;20051;-82
2022/05/30 10:16:03;;;;;;;0.10;0.10;;;;;;;19.02;39.73;101504.31;5113476;28;20032;-79
2022/05/30 10:18:35;;;;;;;0.00;0.00;;;;;;;19.32;42.16;101509.22;5113565;28;20034;-81
2022/05/30 10:29:55;;;;;;;0.10;0.10;;;;;;;19.81;39.67;101518.59;5079246;28;20395;-82
2022/05/30 10:38:20;;;;;;;0.10;0.10;;;;;;;19.92;40.05;101521.66;5076417;28;20387;-81
2022/05/30 10:41:09;;;;;;;0.10;0.10;;;;;;;19.88;36.44;101526.31;5039140;28;20042;-80
2022/05/30 10:44:00;;;;;;;0.10;0.10;;;;;;;19.94;37.66;101526.97;5038817;28;20512;-81
2022/05/30 10:46:50;;;;;;;0.10;0.10;;;;;;;19.84;37.21;101530.13;5038718;28;20043;-79
2022/05/30 10:49:21;;;;;;;1.00;0.75;;;;;;;19.55;35.44;101534.16;5036789;28;20048;-79
2022/05/30 10:54:34;;;;;;;0.10;0.10;;;;;;;19.75;36.54;101524.28;5112792;27;20384;-79
2022/05/30 10:57:15;;;;;;;0.20;0.20;;;;;;;19.71;33.72;101528.91;5113501;28;20075;-79
2022/05/30 10:59:49;;;;;;;0.10;0.10;;;;;;;19.65;35.52;101534.59;5115519;28;20042;-81
2022/05/30 11:07:53;;;;;;;0.10;0.10;;;;;;;19.75;36.00;101540.41;5115714;27;20388;-81
2022/05/30 11:13:51;;;;;;;0.10;0.10;;;;;;;19.90;34.64;101533.44;5138684;27;20500;-80
2022/05/30 11:19:18;;;;;;;0.08;0.08;;;;;;;20.01;34.11;101532.00;5117675;27;20392;-80
2022/05/30 11:24:22;;;;;;;0.10;0.10;;;;;;;19.42;35.68;101549.13;5116729;27;20185;-79
2022/05/30 11:27:06;;;;;;;0.20;0.20;;;;;;;19.37;36.57;101541.25;5116462;28;20055;-80
2022/05/30 11:29:49;;;;;;;0.10;0.10;;;;;;;19.11;37.23;101546.00;5115510;28;20020;-82
2022/05/30 11:32:44;;;;;;;0.00;0.00;;;;;;;19.11;37.19;101537.06;5115790;28;20016;-80
2022/05/30 11:35:32;;;;;;;0.10;0.10;;;;;;;18.96;37.66;101531.44;5115886;28;20055;-80
2022/05/30 11:41:18;;;;;;;0.10;0.10;;;;;;;18.97;37.71;101527.81;5080683;28;20389;-81
2022/05/30 11:44:24;;;;;;;0.00;0.00;;;;;;;19.23;37.73;101531.16;5077751;28;20028;-81
2022/05/30 11:47:05;;;;;;;0.03;0.03;;;;;;;19.26;38.49;101530.13;5077319;28;20093;-81
2022/05/30 11:58:02;;;;;;;0.10;0.10;;;;;;;19.69;37.10;101526.31;5077076;28;20398;-81
2022/05/30 12:00:41;;;;;;;0.10;0.10;;;;;;;19.87;37.33;101515.66;5079036;28;20092;-80
2022/05/30 12:09:00;;;;;;;0.03;0.03;;;;;;;20.21;34.12;101519.34;5113480;27;20347;-79
2022/05/30 12:11:56;;;;;;;0.10;0.10;;;;;;;20.06;34.99;101528.19;5113439;28;20497;-79
2022/05/30 12:23:48;;;;;;;1.08;1.08;;;;;;;19.85;34.09;101528.28;5119985;27;1205947;-80
2022/05/30 12:26:14;;;;;;;0.10;0.10;;;;;;;19.90;33.97;101528.97;5133902;27;20506;-79
2022/05/30 12:31:35;;;;;;;0.00;0.00;;;;;;;20.05;36.66;101521.97;5071628;28;20902;-81
2022/05/30 12:34:01;;;;;;;0.10;0.10;;;;;;;20.14;37.02;101517.94;5075960;28;20056;-81
2022/05/30 12:39:32;;;;;;;0.00;0.00;;;;;;;20.57;34.47;101517.59;5117122;27;20392;-80
2022/05/30 12:42:00;;;;;;;0.20;0.20;;;;;;;20.66;34.85;101512.59;5116508;28;20035;-81
2022/05/30 12:44:48;;;;;;;0.10;0.10;;;;;;;21.00;35.01;101520.75;5115720;28;20028;-81
2022/05/30 12:47:27;;;;;;;0.00;0.00;;;;;;;21.19;37.28;101515.25;5115470;28;20032;-81
2022/05/30 12:50:26;;;;;;;0.10;0.10;;;;;;;21.51;35.56;101515.31;5115840;28;20424;-81
2022/05/30 12:52:57;;;;;;;0.10;0.10;;;;;;;21.66;34.62;101508.22;5114064;28;20023;-82
2022/05/30 12:55:45;;;;;;;0.20;0.20;;;;;;;21.91;32.80;101504.13;5115556;28;20028;-81
2022/05/30 12:58:20;;;;;;;0.10;0.10;;;;;;;22.11;32.53;101494.88;5115912;28;20031;-82
2022/05/30 13:00:52;;;;;;;0.20;0.20;;;;;;;22.29;30.91;101493.81;5114337;28;20060;-82
2022/05/30 13:03:38;;;;;;;0.10;0.10;;;;;;;22.46;34.06;101494.66;5115811;28;20031;-82
2022/05/30 13:06:19;;;;;;;0.20;0.20;;;;;;;22.58;33.74;101485.81;5115956;28;20647;-82
2022/05/30 13:08:51;;;;;;;0.10;0.10;;;;;;;22.68;31.50;101491.53;5115161;28;20024;-81
2022/05/30 13:14:48;;;;;;;0.10;0.10;;;;;;;22.98;32.88;101492.41;5098114;28;20381;-83
2022/05/30 13:25:22;;;;;;;0.10;0.10;;;;;;;22.48;33.08;101490.03;5138854;27;20382;-81
2022/05/30 13:27:49;;;;;;;0.00;0.00;;;;;;;22.24;31.57;101489.63;5138851;28;20099;-81